Time;durP1;ratioP1;P1;durP2;ratioP2;P2;SDS_P1;SDS_P2;PMS_P1;PMS_P2;Temp;Humidity;BMP_temperature;BMP_pressure;BME280_temperature;BME280_humidity;BME280_pressure;Samples;Min_cycle;Max_cycle;Signal;HPM_P1;HPM_P2
2023/04/05 04:10:22;;;;;;;;;;;;;;;5.44;44.24;97029.44;4231130;27;10421;-71
2023/04/05 04:12:25;;;;;;;;;;;;;;;5.68;43.96;97020.88;4198546;28;5682;-72
2023/04/05 04:14:28;;;;;;;;;;;;;;;5.96;43.69;97026.75;4212396;28;5687;-72
2023/04/05 04:16:31;;;;;;;;;;;;;;;6.16;43.55;97032.56;4213693;28;5624;-72
2023/04/05 04:18:34;;;;;;;;;;;;;;;6.33;43.41;97034.22;4214465;28;5727;-72
2023/04/05 04:20:37;;;;;;;;;;;;;;;6.50;43.08;97026.41;4212914;28;5863;-72
2023/04/05 04:22:40;;;;;;;;;;;;;;;6.60;43.10;97035.78;4213407;28;5624;-72
2023/04/05 04:24:45;;;;;;;;;;;;;;;6.70;42.89;97040.88;4214487;28;5616;-72
2023/04/05 04:26:49;;;;;;;;;;;;;;;6.79;42.72;97037.25;4210168;28;5740;-72
2023/04/05 04:28:52;;;;;;;;;;;;;;;6.79;42.78;97037.25;4214201;28;5722;-71
2023/04/05 04:30:55;;;;;;;;;;;;;;;6.86;42.78;97035.63;4213895;28;5627;-72
2023/04/05 04:32:58;;;;;;;;;;;;;;;6.94;42.67;97035.63;4213292;28;6529;-71
2023/04/05 04:35:04;;;;;;;;;;;;;;;6.98;42.70;97033.50;4212881;28;5699;-71
2023/04/05 04:37:06;;;;;;;;;;;;;;;7.07;42.59;97036.94;4213040;28;5766;-72
2023/04/05 04:39:12;;;;;;;;;;;;;;;7.06;42.38;97035.31;4212108;28;5636;-71
2023/04/05 04:41:16;;;;;;;;;;;;;;;7.00;42.56;97039.41;4209865;28;5750;-71
2023/04/05 04:43:26;;;;;;;;;;;;;;;7.01;42.51;97039.25;4214069;28;5673;-72
2023/04/05 04:45:33;;;;;;;;;;;;;;;7.07;42.45;97036.94;4211089;28;5641;-72
2023/04/05 04:47:37;;;;;;;;;;;;;;;7.12;42.24;97027.56;4212951;28;7036;-73
2023/04/05 04:49:40;;;;;;;;;;;;;;;7.16;42.37;97046.47;4195241;28;5882;-72
2023/04/05 04:51:43;;;;;;;;;;;;;;;7.15;42.25;97034.31;4211965;28;5695;-72
2023/04/05 04:53:46;;;;;;;;;;;;;;;7.18;42.25;97044.50;4211025;28;5847;-72
2023/04/05 04:55:49;;;;;;;;;;;;;;;7.20;42.09;97040.72;4212292;28;5711;-72
2023/04/05 04:57:53;;;;;;;;;;;;;;;7.20;42.22;97040.72;4212751;28;5671;-73
2023/04/05 04:59:57;;;;;;;;;;;;;;;7.21;42.02;97034.47;4210147;28;5814;-75
2023/04/05 05:02:00;;;;;;;;;;;;;;;7.22;42.11;97032.66;4211374;28;5797;-75
2023/04/05 05:04:03;;;;;;;;;;;;;;;7.27;42.16;97039.06;4207817;28;5749;-75
2023/04/05 05:06:07;;;;;;;;;;;;;;;7.33;41.93;97042.00;4211795;28;5639;-75
2023/04/05 05:08:09;;;;;;;;;;;;;;;7.32;41.99;97045.63;4205685;28;5799;-75
2023/04/05 05:10:15;;;;;;;;;;;;;;;7.30;41.95;97053.69;4208343;28;5671;-75
2023/04/05 05:12:19;;;;;;;;;;;;;;;7.30;41.86;97056.31;4197662;28;5861;-74
2023/04/05 05:14:22;;;;;;;;;;;;;;;7.32;41.99;97061.41;4193178;28;5643;-75
2023/04/05 05:16:26;;;;;;;;;;;;;;;7.29;41.74;97052.88;4200056;28;5639;-75
2023/04/05 05:18:29;;;;;;;;;;;;;;;7.33;42.01;97053.34;4199017;28;5735;-74
2023/04/05 05:20:32;;;;;;;;;;;;;;;7.30;41.90;97054.50;4198332;28;5730;-75
2023/04/05 05:22:35;;;;;;;;;;;;;;;7.26;41.90;97055.03;4201354;28;5628;-75
2023/04/05 05:24:38;;;;;;;;;;;;;;;7.26;41.94;97055.84;4201431;28;5837;-75
2023/04/05 05:26:41;;;;;;;;;;;;;;;7.30;41.76;97059.78;4201678;28;5635;-75
2023/04/05 05:28:44;;;;;;;;;;;;;;;7.31;41.82;97060.59;4199696;28;5683;-75
2023/04/05 05:30:47;;;;;;;;;;;;;;;7.32;41.65;97059.59;4199756;28;5769;-75
2023/04/05 05:32:52;;;;;;;;;;;;;;;7.35;41.79;97064.53;4196504;28;5109;-75
2023/04/05 05:34:55;;;;;;;;;;;;;;;7.36;41.74;97063.56;4200354;28;6328;-75
2023/04/05 05:36:57;;;;;;;;;;;;;;;7.38;41.69;97066.84;4201970;28;5640;-76
2023/04/05 05:39:00;;;;;;;;;;;;;;;7.38;41.53;97069.47;4196384;28;5880;-75
2023/04/05 05:41:03;;;;;;;;;;;;;;;7.40;41.69;97071.94;4195276;28;5742;-76
2023/04/05 05:43:06;;;;;;;;;;;;;;;7.34;41.68;97070.78;4195629;28;5867;-76
2023/04/05 05:45:10;;;;;;;;;;;;;;;7.29;41.71;97068.66;4200861;28;5694;-75
2023/04/05 05:47:13;;;;;;;;;;;;;;;7.31;41.60;97071.13;4202722;28;5639;-75
2023/04/05 05:49:17;;;;;;;;;;;;;;;7.32;41.81;97070.13;4202283;28;5627;-76
2023/04/05 05:51:20;;;;;;;;;;;;;;;7.34;41.54;97068.16;4194297;28;5791;-76
2023/04/05 05:53:23;;;;;;;;;;;;;;;7.41;41.56;97070.94;4202318;28;5719;-77
2023/04/05 05:55:26;;;;;;;;;;;;;;;7.41;41.57;97071.75;4202041;28;5699;-76
2023/04/05 05:57:29;;;;;;;;;;;;;;;7.45;41.43;97078.31;4202322;28;5683;-76
2023/04/05 05:59:32;;;;;;;;;;;;;;;7.46;41.38;97073.88;4199991;28;5759;-75
2023/04/05 06:01:37;;;;;;;;;;;;;;;7.45;41.63;97080.94;4193217;28;5709;-75
2023/04/05 06:03:40;;;;;;;;;;;;;;;7.45;41.51;97072.25;4200069;28;5718;-75
2023/04/05 06:05:52;;;;;;;;;;;;;;;7.49;41.69;97078.84;4211963;28;5617;-76
2023/04/05 06:07:54;;;;;;;;;;;;;;;7.52;41.52;97084.56;4195006;28;5960;-75
2023/04/05 06:09:57;;;;;;;;;;;;;;;7.51;41.42;97088.19;4185645;28;6485;-78
2023/04/05 06:12:00;;;;;;;;;;;;;;;7.51;41.57;97087.38;4191421;28;5728;-76
2023/04/05 06:14:03;;;;;;;;;;;;;;;7.50;41.53;97081.28;4196052;28;5731;-76
2023/04/05 06:16:07;;;;;;;;;;;;;;;7.53;41.40;97090.66;4194372;28;5754;-75
2023/04/05 06:18:10;;;;;;;;;;;;;;;7.55;41.56;97083.41;4199067;28;6033;-75
2023/04/05 06:20:14;;;;;;;;;;;;;;;7.57;41.47;97087.50;4199020;28;5620;-75
2023/04/05 06:22:18;;;;;;;;;;;;;;;7.58;41.31;97083.06;4199243;28;5770;-75
2023/04/05 06:24:21;;;;;;;;;;;;;;;7.58;41.16;97088.31;4193375;28;5627;-75
2023/04/05 06:26:26;;;;;;;;;;;;;;;7.63;41.28;97091.28;4193802;28;6391;-76
2023/04/05 06:28:29;;;;;;;;;;;;;;;7.65;41.25;97086.69;4200486;28;5742;-76
2023/04/05 06:30:32;;;;;;;;;;;;;;;7.69;41.41;97087.16;4198268;28;5745;-75
2023/04/05 06:32:35;;;;;;;;;;;;;;;7.67;41.38;97094.41;4194835;28;5787;-75
2023/04/05 06:34:38;;;;;;;;;;;;;;;7.71;41.34;97096.56;4200255;28;5748;-75
2023/04/05 06:36:41;;;;;;;;;;;;;;;7.72;41.33;97103.47;4200052;28;5799;-75
2023/04/05 06:38:46;;;;;;;;;;;;;;;7.70;41.29;97102.81;4193065;28;5620;-76
2023/04/05 06:40:49;;;;;;;;;;;;;;;7.73;41.44;97102.47;4200803;28;5733;-75
2023/04/05 06:42:52;;;;;;;;;;;;;;;7.75;41.26;97102.28;4201138;28;5698;-75
2023/04/05 06:44:55;;;;;;;;;;;;;;;7.78;41.09;97109.84;4201118;28;5695;-75
2023/04/05 06:46:58;;;;;;;;;;;;;;;7.78;41.08;97117.75;4201801;28;5770;-75
2023/04/05 06:49:00;;;;;;;;;;;;;;;7.77;41.22;97109.03;4200135;28;5695;-75
2023/04/05 06:51:06;;;;;;;;;;;;;;;7.79;41.10;97106.22;4198002;28;5651;-75
2023/04/05 06:53:09;;;;;;;;;;;;;;;7.84;40.95;97114.44;4199218;28;5730;-75
2023/04/05 06:55:13;;;;;;;;;;;;;;;7.88;40.92;97108.66;4203675;28;5841;-75
2023/04/05 06:57:16;;;;;;;;;;;;;;;7.89;40.98;97109.50;4195464;28;5826;-71
2023/04/05 06:59:18;;;;;;;;;;;;;;;7.92;41.00;97108.31;4191325;28;5805;-67
2023/04/05 07:01:23;;;;;;;;;;;;;;;7.92;41.15;97109.16;4195409;28;5726;-66
2023/04/05 07:03:29;;;;;;;;;;;;;;;7.94;41.16;97107.19;4192858;28;5709;-68
2023/04/05 07:05:32;;;;;;;;;;;;;;;7.95;41.13;97103.56;4199250;28;5880;-67
2023/04/05 07:07:39;;;;;;;;;;;;;;;7.99;41.07;97104.88;4205067;28;5687;-68
2023/04/05 07:09:42;;;;;;;;;;;;;;;8.00;41.06;97103.88;4188720;28;5734;-69
2023/04/05 07:11:46;;;;;;;;;;;;;;;8.00;41.19;97103.88;4195992;28;5860;-69
2023/04/05 07:13:49;;;;;;;;;;;;;;;8.02;40.98;97101.88;4198038;28;5644;-69
2023/04/05 07:15:52;;;;;;;;;;;;;;;8.05;41.06;97095.47;4197465;28;5974;-67
2023/04/05 07:17:57;;;;;;;;;;;;;;;8.09;40.91;97105.50;4194235;28;5841;-67
2023/04/05 07:20:00;;;;;;;;;;;;;;;8.08;41.05;97103.84;4174720;28;5868;-68
2023/04/05 07:22:03;;;;;;;;;;;;;;;8.10;40.91;97099.22;4185709;28;5800;-68
2023/04/05 07:24:07;;;;;;;;;;;;;;;8.12;40.97;97099.88;4187676;28;5786;-66
2023/04/05 07:26:11;;;;;;;;;;;;;;;8.15;41.10;97103.97;4200231;28;5635;-67
2023/04/05 07:28:16;;;;;;;;;;;;;;;8.13;41.18;97106.78;4203855;28;5612;-68
2023/04/05 07:30:21;;;;;;;;;;;;;;;8.11;41.24;97110.59;4189687;28;5770;-68
2023/04/05 07:32:25;;;;;;;;;;;;;;;8.13;41.02;97103.31;4195143;28;5754;-74
2023/04/05 07:34:29;;;;;;;;;;;;;;;8.16;41.07;97106.47;4199536;28;5703;-74
2023/04/05 07:36:33;;;;;;;;;;;;;;;8.20;41.37;97108.75;4195294;28;5627;-70
2023/04/05 07:38:50;;;;;;;;;;;;;;;8.26;41.12;97108.06;4195570;28;5620;-67
2023/04/05 07:41:08;;;;;;;;;;;;;;;8.31;41.31;97106.56;4205617;28;5652;-79
2023/04/05 07:43:12;;;;;;;;;;;;;;;8.32;41.13;97113.47;4198357;28;5711;-68
2023/04/05 07:45:17;;;;;;;;;;;;;;;8.34;41.29;97119.41;4185902;28;5713;-71
2023/04/05 07:47:27;;;;;;;;;;;;;;;8.32;41.17;97115.28;4189464;28;5978;-75
2023/04/05 07:49:33;;;;;;;;;;;;;;;8.28;41.34;97111.38;4193984;28;5609;-75
2023/04/05 07:51:38;;;;;;;;;;;;;;;8.24;41.27;97121.41;4202389;28;5839;-75
2023/04/05 07:53:41;;;;;;;;;;;;;;;8.24;41.38;97126.66;4199664;28;5727;-75
2023/04/05 07:55:46;;;;;;;;;;;;;;;8.29;41.51;97127.00;4200969;28;5627;-66
2023/04/05 07:57:49;;;;;;;;;;;;;;;8.34;41.66;97131.72;4200722;28;5779;-69
2023/04/05 07:59:55;;;;;;;;;;;;;;;8.36;41.35;97124.50;4198052;28;5758;-69
2023/04/05 08:02:00;;;;;;;;;;;;;;;8.35;41.35;97133.41;4202840;28;5812;-70
2023/04/05 08:04:15;;;;;;;;;;;;;;;8.39;41.43;97125.00;4197439;28;7779;-69
2023/04/05 08:06:19;;;;;;;;;;;;;;;8.39;41.51;97121.56;4198918;28;5612;-77
2023/04/05 08:08:23;;;;;;;;;;;;;;;8.41;41.33;97130.94;4195125;28;5584;-75
2023/04/05 08:10:27;;;;;;;;;;;;;;;8.40;41.44;97125.81;4194524;28;7708;-74
2023/04/05 08:12:31;;;;;;;;;;;;;;;8.39;41.66;97129.47;4198100;28;5627;-78
2023/04/05 08:14:34;;;;;;;;;;;;;;;8.42;41.47;97129.94;4194854;28;5854;-76
2023/04/05 08:16:37;;;;;;;;;;;;;;;8.43;41.50;97125.47;4204335;28;5857;-75
2023/04/05 08:18:41;;;;;;;;;;;;;;;8.45;41.45;97118.22;4194302;28;5702;-70
2023/04/05 08:20:51;;;;;;;;;;;;;;;8.45;41.56;97121.66;4194596;28;5709;-67
2023/04/05 08:22:54;;;;;;;;;;;;;;;8.49;41.42;97127.41;4190154;28;5653;-71
2023/04/05 08:24:57;;;;;;;;;;;;;;;8.47;41.26;97121.50;4200021;28;5891;-75
2023/04/05 08:27:00;;;;;;;;;;;;;;;8.46;41.62;97120.69;4197056;28;5636;-76
2023/04/05 08:29:04;;;;;;;;;;;;;;;8.47;41.41;97126.78;4197275;28;5644;-76
2023/04/05 08:31:06;;;;;;;;;;;;;;;8.48;41.56;97122.31;4194706;28;5827;-75
2023/04/05 08:33:09;;;;;;;;;;;;;;;8.52;41.50;97129.72;4190373;28;5791;-71
2023/04/05 08:35:14;;;;;;;;;;;;;;;8.61;41.52;97126.06;4198328;28;5690;-73
2023/04/05 08:37:17;;;;;;;;;;;;;;;8.62;41.40;97117.16;4193345;28;5656;-75
2023/04/05 08:39:20;;;;;;;;;;;;;;;8.58;41.62;97121.13;4166963;28;5677;-74
2023/04/05 08:41:26;;;;;;;;;;;;;;;8.60;41.43;97123.56;4195873;28;5776;-72
2023/04/05 08:43:39;;;;;;;;;;;;;;;8.59;41.45;97117.47;4192777;28;5781;-69
2023/04/05 08:45:47;;;;;;;;;;;;;;;8.59;41.66;97112.22;4195808;28;5787;-72
2023/04/05 08:47:53;;;;;;;;;;;;;;;8.63;41.66;97105.63;4197926;28;5628;-71
2023/04/05 08:49:59;;;;;;;;;;;;;;;8.61;41.52;97112.88;4201612;28;5758;-71
2023/04/05 08:52:04;;;;;;;;;;;;;;;8.64;41.68;97111.72;4190795;28;5639;-71
2023/04/05 08:54:08;;;;;;;;;;;;;;;8.68;41.75;97121.72;4202973;28;5962;-70
2023/04/05 08:56:16;;;;;;;;;;;;;;;8.72;41.62;97120.41;4187600;28;5697;-70
2023/04/05 08:58:22;;;;;;;;;;;;;;;8.76;41.63;97120.88;4192694;28;5616;-70
2023/04/05 09:00:26;;;;;;;;;;;;;;;8.81;41.75;97120.34;4198404;28;5611;-69
2023/04/05 09:02:29;;;;;;;;;;;;;;;8.86;41.60;97125.94;4196483;28;5867;-71
2023/04/05 09:04:38;;;;;;;;;;;;;;;8.89;41.51;97117.66;4199904;28;5631;-71
2023/04/05 09:06:41;;;;;;;;;;;;;;;8.92;41.86;97122.56;4201871;28;5627;-70
2023/04/05 09:08:46;;;;;;;;;;;;;;;8.97;41.69;97115.78;4201273;28;5655;-71
2023/04/05 09:10:50;;;;;;;;;;;;;;;8.99;41.62;97115.63;4200974;28;5714;-68
2023/04/05 09:12:53;;;;;;;;;;;;;;;9.03;41.52;97128.25;4192094;28;5861;-68
2023/04/05 09:14:57;;;;;;;;;;;;;;;9.02;41.63;97116.06;4201161;28;5782;-68
2023/04/05 09:17:02;;;;;;;;;;;;;;;8.98;41.60;97114.78;4202539;28;6471;-68
2023/04/05 09:19:05;;;;;;;;;;;;;;;8.99;41.74;97113.81;4194292;28;5658;-68
2023/04/05 09:21:09;;;;;;;;;;;;;;;9.05;41.58;97114.91;4187756;28;5721;-68
2023/04/05 09:23:12;;;;;;;;;;;;;;;9.07;41.71;97107.66;4199020;28;5686;-68
2023/04/05 09:25:37;;;;;;;;;;;;;;;9.12;41.76;97109.75;4201847;28;5830;-68
2023/04/05 09:27:55;;;;;;;;;;;;;;;9.15;41.68;97107.56;4196230;28;5822;-68
2023/04/05 09:29:58;;;;;;;;;;;;;;;9.18;41.62;97103.78;4191739;28;5733;-68
2023/04/05 09:32:02;;;;;;;;;;;;;;;9.16;41.73;97101.31;4199089;28;5869;-68
2023/04/05 09:34:07;;;;;;;;;;;;;;;9.15;41.83;97104.94;4198635;28;5769;-68
2023/04/05 09:36:11;;;;;;;;;;;;;;;9.17;41.68;97102.94;4185444;28;6807;-68
2023/04/05 09:38:14;;;;;;;;;;;;;;;9.20;41.86;97107.88;4198895;28;5894;-67
2023/04/05 09:40:18;;;;;;;;;;;;;;;9.23;41.58;97104.06;4204748;28;5605;-68
2023/04/05 09:42:22;;;;;;;;;;;;;;;9.25;41.75;97107.34;4219371;28;5613;-68
2023/04/05 09:44:25;;;;;;;;;;;;;;;9.28;41.78;97115.72;4212352;28;5841;-68
2023/04/05 09:46:31;;;;;;;;;;;;;;;9.31;41.51;97107.47;4207775;28;5702;-68
2023/04/05 09:48:47;;;;;;;;;;;;;;;9.36;41.88;97109.56;4202311;28;5893;-68
2023/04/05 09:50:50;;;;;;;;;;;;;;;9.40;41.66;97107.38;4194406;28;5724;-68
2023/04/05 09:53:06;;;;;;;;;;;;;;;9.42;41.75;97100.13;4198935;28;5707;-69
2023/04/05 09:55:10;;;;;;;;;;;;;;;9.44;41.51;97113.97;4211711;28;5626;-68
2023/04/05 09:57:16;;;;;;;;;;;;;;;9.44;41.69;97108.69;4202794;28;6105;-69
2023/04/05 09:59:19;;;;;;;;;;;;;;;9.43;41.74;97107.03;4199683;28;5612;-68
2023/04/05 10:01:22;;;;;;;;;;;;;;;9.48;41.63;97102.03;4201820;28;5730;-69
2023/04/05 10:03:26;;;;;;;;;;;;;;;9.49;41.77;97112.41;4201263;28;5771;-69
2023/04/05 10:05:31;;;;;;;;;;;;;;;9.51;41.74;97102.53;4208247;28;5683;-72
2023/04/05 10:07:35;;;;;;;;;;;;;;;9.52;41.59;97101.53;4202109;28;5643;-72
2023/04/05 10:09:38;;;;;;;;;;;;;;;9.53;41.76;97105.81;4209738;28;5757;-69
2023/04/05 10:11:43;;;;;;;;;;;;;;;9.54;41.75;97106.63;4218988;28;5612;-72
2023/04/05 10:13:49;;;;;;;;;;;;;;;9.56;41.50;97107.25;4203666;28;5690;-68
2023/04/05 10:15:57;;;;;;;;;;;;;;;9.56;41.90;97104.63;4201323;28;5632;-70
2023/04/05 10:18:09;;;;;;;;;;;;;;;9.55;41.80;97106.44;4169724;28;6339;-70
2023/04/05 10:20:16;;;;;;;;;;;;;;;9.58;41.81;97097.34;4193792;28;5712;-70
2023/04/05 10:22:24;;;;;;;;;;;;;;;9.58;41.79;97098.16;4194590;28;5616;-70
2023/04/05 10:24:36;;;;;;;;;;;;;;;9.55;41.80;97092.41;4201591;28;5702;-71
2023/04/05 10:26:45;;;;;;;;;;;;;;;9.58;41.98;97099.97;4200753;28;5635;-70
2023/04/05 10:28:55;;;;;;;;;;;;;;;9.59;41.68;97102.44;4200973;28;5648;-71
2023/04/05 10:31:08;;;;;;;;;;;;;;;9.62;41.95;97102.06;4199094;28;5749;-69
2023/04/05 10:33:19;;;;;;;;;;;;;;;9.65;41.65;97095.63;4205928;28;5708;-69
2023/04/05 10:35:28;;;;;;;;;;;;;;;9.63;41.59;97095.00;4213905;28;5621;-69
2023/04/05 10:37:51;;;;;;;;;;;;;;;9.65;41.69;97087.72;4206684;28;5814;-69
2023/04/05 10:39:59;;;;;;;;;;;;;;;9.72;41.62;97087.78;4209692;28;5715;-69
2023/04/05 10:42:07;;;;;;;;;;;;;;;9.76;41.68;97089.09;4201267;28;5639;-67
2023/04/05 10:44:12;;;;;;;;;;;;;;;9.79;41.43;97081.63;4201422;28;5682;-68
2023/04/05 10:46:28;;;;;;;;;;;;;;;9.86;41.29;97087.81;4185983;28;6002;-69
2023/04/05 10:48:48;;;;;;;;;;;;;;;9.86;41.43;97092.28;4201616;28;5785;-67
2023/04/05 10:50:52;;;;;;;;;;;;;;;9.85;41.39;97080.91;4201335;28;5708;-67
2023/04/05 10:52:58;;;;;;;;;;;;;;;9.84;41.28;97084.53;4191677;28;5624;-68
2023/04/05 10:55:03;;;;;;;;;;;;;;;9.87;41.34;97088.63;4201302;28;6313;-68
2023/04/05 10:57:08;;;;;;;;;;;;;;;9.85;41.45;97087.97;4201314;28;5710;-68
2023/04/05 10:59:14;;;;;;;;;;;;;;;9.88;41.39;97085.81;4191218;28;5105;-68
2023/04/05 11:01:18;;;;;;;;;;;;;;;9.92;41.38;97076.50;4200924;28;5794;-68
2023/04/05 11:03:45;;;;;;;;;;;;;;;9.99;40.96;97089.00;4193293;28;5717;-68
2023/04/05 11:05:47;;;;;;;;;;;;;;;10.02;41.27;97083.34;4201330;28;5185;-68
2023/04/05 11:07:55;;;;;;;;;;;;;;;10.07;41.31;97075.69;4200466;28;5644;-68
2023/04/05 11:10:02;;;;;;;;;;;;;;;10.09;40.93;97079.81;4200831;28;5691;-68
2023/04/05 11:12:05;;;;;;;;;;;;;;;10.08;41.09;97075.53;4200903;28;5686;-68
2023/04/05 11:14:20;;;;;;;;;;;;;;;10.04;41.25;97068.13;4201030;28;5811;-68
2023/04/05 11:16:38;;;;;;;;;;;;;;;9.98;41.01;97068.88;4200537;28;5698;-68
2023/04/05 11:18:45;;;;;;;;;;;;;;;10.00;41.39;97061.59;4200851;28;5647;-68
2023/04/05 11:20:51;;;;;;;;;;;;;;;10.01;41.42;97068.50;4200690;28;5624;-68
2023/04/05 11:22:54;;;;;;;;;;;;;;;10.07;41.16;97065.13;4200983;28;5646;-68
2023/04/05 11:25:01;;;;;;;;;;;;;;;10.12;41.15;97060.13;4200817;28;5631;-68
2023/04/05 11:27:09;;;;;;;;;;;;;;;10.16;41.07;97069.31;4200826;28;5767;-69
2023/04/05 11:29:12;;;;;;;;;;;;;;;10.18;41.15;97067.31;4200682;28;5691;-68
2023/04/05 11:31:18;;;;;;;;;;;;;;;10.18;41.31;97067.31;4200577;28;5751;-68
2023/04/05 11:33:37;;;;;;;;;;;;;;;10.20;41.20;97058.22;4200959;28;5695;-68
2023/04/05 11:35:40;;;;;;;;;;;;;;;10.22;40.94;97055.41;4200718;28;5734;-69
2023/04/05 11:38:10;;;;;;;;;;;;;;;10.26;40.83;97051.38;4199442;28;5747;-69
2023/04/05 11:40:27;;;;;;;;;;;;;;;10.32;41.10;97058.59;4128427;28;5809;-69
2023/04/05 11:42:30;;;;;;;;;;;;;;;10.36;41.02;97054.56;4124923;28;5741;-69
2023/04/05 11:44:42;;;;;;;;;;;;;;;10.36;40.90;97051.91;4130744;28;5849;-68
2023/04/05 11:46:47;;;;;;;;;;;;;;;10.36;41.03;97051.91;4132021;28;5722;-68
2023/04/05 11:48:50;;;;;;;;;;;;;;;10.38;40.85;97052.56;4116671;28;5836;-68
2023/04/05 11:50:54;;;;;;;;;;;;;;;10.39;40.48;97046.25;4123597;28;5886;-67
2023/04/05 11:53:11;;;;;;;;;;;;;;;10.33;40.56;97052.31;4127132;28;5718;-68
2023/04/05 11:55:14;;;;;;;;;;;;;;;10.31;40.59;97046.38;4132065;28;5730;-68
2023/04/05 11:57:19;;;;;;;;;;;;;;;10.33;40.46;97051.47;4130514;28;5730;-68
2023/04/05 11:59:29;;;;;;;;;;;;;;;10.38;40.55;97049.91;4123135;28;5849;-68
2023/04/05 12:01:32;;;;;;;;;;;;;;;10.42;40.80;97050.38;4126887;28;5715;-68
2023/04/05 12:03:37;;;;;;;;;;;;;;;10.46;40.82;97046.34;4129138;28;5710;-68
2023/04/05 12:05:48;;;;;;;;;;;;;;;10.48;40.56;97044.31;4127727;28;5902;-68
2023/04/05 12:07:53;;;;;;;;;;;;;;;10.50;40.50;97048.41;4126795;28;5878;-68
2023/04/05 12:10:01;;;;;;;;;;;;;;;10.49;40.60;97036.22;4130697;28;5738;-68
2023/04/05 12:12:05;;;;;;;;;;;;;;;10.50;40.47;97042.31;4130004;28;5723;-68
2023/04/05 12:14:11;;;;;;;;;;;;;;;10.54;40.38;97042.78;4127645;28;5825;-68
2023/04/05 12:16:14;;;;;;;;;;;;;;;10.59;40.34;97035.91;4156355;28;5628;-67
2023/04/05 12:18:17;;;;;;;;;;;;;;;10.64;39.96;97038.81;4185189;28;5825;-67
2023/04/05 12:20:23;;;;;;;;;;;;;;;10.65;39.97;97034.38;4190586;28;5816;-68
2023/04/05 12:22:26;;;;;;;;;;;;;;;10.67;40.22;97032.34;4195222;28;5798;-68
2023/04/05 12:24:29;;;;;;;;;;;;;;;10.68;39.91;97023.41;4189677;28;5936;-68
2023/04/05 12:26:34;;;;;;;;;;;;;;;10.75;39.73;97026.91;4196067;28;5643;-69
2023/04/05 12:28:51;;;;;;;;;;;;;;;10.80;39.94;97024.53;4193128;28;5811;-68
2023/04/05 12:30:56;;;;;;;;;;;;;;;10.86;39.76;97029.06;4197041;28;6643;-68
2023/04/05 12:33:01;;;;;;;;;;;;;;;10.86;39.81;97021.13;4192342;28;5912;-68
2023/04/05 12:35:10;;;;;;;;;;;;;;;10.89;39.77;97023.41;4189987;28;5651;-68
2023/04/05 12:37:16;;;;;;;;;;;;;;;10.93;39.67;97016.72;4195998;28;5706;-68
2023/04/05 12:39:23;;;;;;;;;;;;;;;10.98;39.58;97024.06;4189036;28;6531;-69
2023/04/05 12:41:30;;;;;;;;;;;;;;;10.99;39.75;97026.56;4195927;28;5863;-68
2023/04/05 12:43:40;;;;;;;;;;;;;;;10.97;40.00;97023.25;4189868;28;5898;-69
2023/04/05 12:45:43;;;;;;;;;;;;;;;10.99;39.78;97021.25;4195337;28;5883;-69
2023/04/05 12:47:51;;;;;;;;;;;;;;;11.01;39.93;97021.88;4191899;28;5795;-69
2023/04/05 12:49:55;;;;;;;;;;;;;;;11.02;39.61;97014.78;4194171;28;6419;-68
2023/04/05 12:52:01;;;;;;;;;;;;;;;11.03;39.83;97014.56;4194571;28;5643;-68
2023/04/05 12:54:06;;;;;;;;;;;;;;;11.03;39.78;97011.94;4189738;28;5624;-68
2023/04/05 12:56:10;;;;;;;;;;;;;;;11.04;39.55;97013.56;4190447;28;5671;-69
2023/04/05 12:58:13;;;;;;;;;;;;;;;11.03;39.38;97011.94;4190561;28;5639;-69
2023/04/05 13:00:17;;;;;;;;;;;;;;;11.03;39.42;97011.94;4193089;28;5715;-68
2023/04/05 13:02:20;;;;;;;;;;;;;;;11.04;39.57;97013.56;4198315;28;5642;-69
2023/04/05 13:04:25;;;;;;;;;;;;;;;11.09;39.64;97016.44;4194387;28;5636;-69
2023/04/05 13:06:28;;;;;;;;;;;;;;;11.12;39.18;97014.44;4197227;28;5639;-69
2023/04/05 13:08:31;;;;;;;;;;;;;;;11.15;39.50;97008.78;4196102;28;6521;-69
2023/04/05 13:10:39;;;;;;;;;;;;;;;11.19;39.04;97007.38;4188705;28;5734;-69
2023/04/05 13:12:42;;;;;;;;;;;;;;;11.20;38.80;97007.16;4193128;28;5729;-71
2023/04/05 13:14:45;;;;;;;;;;;;;;;11.26;39.21;97005.59;4189252;28;5716;-69
2023/04/05 13:16:49;;;;;;;;;;;;;;;11.28;38.78;96999.09;4186809;28;5798;-70
2023/04/05 13:18:52;;;;;;;;;;;;;;;11.30;38.68;96999.72;4193943;28;5810;-69
2023/04/05 13:20:55;;;;;;;;;;;;;;;11.28;38.98;96998.28;4193536;28;5631;-70
2023/04/05 13:23:02;;;;;;;;;;;;;;;11.32;38.85;96994.22;4195981;28;5827;-69
2023/04/05 13:25:06;;;;;;;;;;;;;;;11.35;38.75;96997.34;4191608;28;5853;-69
2023/04/05 13:27:11;;;;;;;;;;;;;;;11.37;38.54;96997.94;4198971;28;5623;-69
2023/04/05 13:29:14;;;;;;;;;;;;;;;11.41;38.66;96992.25;4195673;28;5723;-71
2023/04/05 13:31:18;;;;;;;;;;;;;;;11.40;38.72;96991.44;4196564;28;6461;-69
2023/04/05 13:33:21;;;;;;;;;;;;;;;11.43;38.85;96988.41;4191438;28;5783;-70
2023/04/05 13:35:25;;;;;;;;;;;;;;;11.46;38.60;96988.03;4198248;28;5097;-69
2023/04/05 13:37:29;;;;;;;;;;;;;;;11.44;38.33;96987.41;4193020;28;6336;-70
2023/04/05 13:39:32;;;;;;;;;;;;;;;11.44;38.11;96986.56;4196174;28;5711;-69
2023/04/05 13:41:36;;;;;;;;;;;;;;;11.43;38.07;96983.09;4194925;28;5640;-70
2023/04/05 13:43:41;;;;;;;;;;;;;;;11.44;38.20;96982.13;4180366;28;5749;-69
2023/04/05 13:45:44;;;;;;;;;;;;;;;11.47;37.88;96987.03;4194407;28;5612;-70
2023/04/05 13:47:47;;;;;;;;;;;;;;;11.46;37.89;96984.56;4199649;28;5628;-69
2023/04/05 13:49:51;;;;;;;;;;;;;;;11.44;37.94;96971.53;4192503;28;5624;-69
2023/04/05 13:51:54;;;;;;;;;;;;;;;11.43;37.97;96964.56;4193098;28;5687;-70
2023/04/05 13:53:58;;;;;;;;;;;;;;;11.49;37.87;96973.59;4185288;28;5650;-69
2023/04/05 13:56:01;;;;;;;;;;;;;;;11.53;37.70;96972.19;4167329;28;6359;-70
2023/04/05 13:58:05;;;;;;;;;;;;;;;11.56;37.47;96974.47;4180880;28;5741;-69
2023/04/05 14:00:11;;;;;;;;;;;;;;;11.56;37.74;96969.97;4184623;28;5795;-70
2023/04/05 14:02:14;;;;;;;;;;;;;;;11.58;37.48;96965.31;4191773;28;5790;-69
2023/04/05 14:04:17;;;;;;;;;;;;;;;11.63;37.75;96970.81;4192175;28;5712;-70
2023/04/05 14:06:21;;;;;;;;;;;;;;;11.66;37.67;96970.44;4190913;28;5905;-68
2023/04/05 14:08:24;;;;;;;;;;;;;;;11.67;37.41;96965.97;4191553;28;5723;-68
2023/04/05 14:10:27;;;;;;;;;;;;;;;11.66;37.13;96969.59;4199753;28;5671;-68
2023/04/05 14:12:30;;;;;;;;;;;;;;;11.64;37.62;96964.50;4189076;28;7797;-68
2023/04/05 14:14:33;;;;;;;;;;;;;;;11.66;37.29;96962.50;4193266;28;5755;-68
2023/04/05 14:16:38;;;;;;;;;;;;;;;11.70;37.34;96968.22;4192869;28;5658;-68
2023/04/05 14:18:41;;;;;;;;;;;;;;;11.75;37.27;96964.97;4188251;28;5799;-69
2023/04/05 14:20:44;;;;;;;;;;;;;;;11.77;37.17;96957.63;4189208;28;5818;-68
2023/04/05 14:22:47;;;;;;;;;;;;;;;11.77;36.94;96960.28;4187328;28;5647;-68
2023/04/05 14:24:50;;;;;;;;;;;;;;;11.78;37.17;96954.81;4193947;28;5803;-68
2023/04/05 14:26:53;;;;;;;;;;;;;;;11.79;37.11;96955.63;4191893;28;5793;-68
2023/04/05 14:28:56;;;;;;;;;;;;;;;11.80;36.87;96952.00;4174748;28;5856;-68
2023/04/05 14:30:59;;;;;;;;;;;;;;;11.83;36.79;96959.53;4188409;28;5859;-68
2023/04/05 14:33:04;;;;;;;;;;;;;;;11.84;36.85;96954.03;4186496;28;6552;-68
2023/04/05 14:35:08;;;;;;;;;;;;;;;11.84;36.81;96955.88;4192578;28;5882;-68
2023/04/05 14:37:11;;;;;;;;;;;;;;;11.84;36.93;96947.94;4191976;28;5108;-68
2023/04/05 14:39:14;;;;;;;;;;;;;;;11.83;36.41;96944.47;4195533;28;5651;-68
2023/04/05 14:41:18;;;;;;;;;;;;;;;11.86;36.46;96945.91;4198307;28;6368;-68
2023/04/05 14:43:21;;;;;;;;;;;;;;;11.87;36.72;96942.22;4195462;28;5811;-68
2023/04/05 14:45:25;;;;;;;;;;;;;;;11.88;36.39;96936.72;4195188;28;5650;-68
2023/04/05 14:47:29;;;;;;;;;;;;;;;11.90;36.35;96939.22;4188868;28;5631;-68
2023/04/05 14:49:33;;;;;;;;;;;;;;;11.91;36.03;96931.06;4189937;28;5821;-69
2023/04/05 14:51:36;;;;;;;;;;;;;;;11.95;36.14;96937.59;4196078;28;5629;-69
2023/04/05 14:53:40;;;;;;;;;;;;;;;11.95;36.20;96936.78;4197834;28;5758;-69
2023/04/05 14:55:43;;;;;;;;;;;;;;;11.96;35.90;96933.09;4190983;28;5973;-69
2023/04/05 14:57:46;;;;;;;;;;;;;;;11.97;36.15;96934.75;4192418;28;5861;-68
2023/04/05 14:59:49;;;;;;;;;;;;;;;11.98;36.09;96932.91;4192570;28;5722;-68
2023/04/05 15:01:53;;;;;;;;;;;;;;;11.98;35.78;96925.78;4193912;28;5616;-68
2023/04/05 15:03:56;;;;;;;;;;;;;;;11.99;35.86;96924.75;4195227;28;5745;-69
2023/04/05 15:06:00;;;;;;;;;;;;;;;12.01;35.84;96930.69;4185851;28;5903;-69
2023/04/05 15:08:03;;;;;;;;;;;;;;;12.03;35.86;96928.66;4185408;28;6525;-69
2023/04/05 15:10:06;;;;;;;;;;;;;;;12.04;35.85;96927.63;4190379;28;5151;-68
2023/04/05 15:12:09;;;;;;;;;;;;;;;12.05;36.25;96926.63;4189169;28;7715;-69
2023/04/05 15:14:12;;;;;;;;;;;;;;;12.04;35.97;96926.81;4184482;28;5819;-68